Time;durP1;ratioP1;P1;durP2;ratioP2;P2;SDS_P1;SDS_P2;PMS_P1;PMS_P2;Temp;Humidity;BMP_temperature;BMP_pressure;BME280_temperature;BME280_humidity;BME280_pressure;Samples;Min_cycle;Max_cycle;Signal;HPM_P1;HPM_P2
2023/05/09 04:46:28;;;;;;;6.07;4.10;;;;;;;;;;4992878;27;20377;-78
2023/05/09 04:48:53;;;;;;;5.97;4.50;;;;;;;;;;5010160;28;20049;-77
2023/05/09 04:51:18;;;;;;;7.55;4.78;;;;;;;;;;5038766;28;20056;-78
2023/05/09 04:53:44;;;;;;;9.10;5.18;;;;;;;;;;5031215;28;20427;-77
2023/05/09 04:56:10;;;;;;;6.00;4.80;;;;;;;;;;5026382;28;20185;-77
2023/05/09 04:58:38;;;;;;;7.10;5.15;;;;;;;;;;5012569;28;20053;-77
2023/05/09 05:01:05;;;;;;;6.93;5.15;;;;;;;;;;5010648;28;20513;-78
2023/05/09 05:03:30;;;;;;;8.23;4.40;;;;;;;;;;5029957;28;20041;-77
2023/05/09 05:05:56;;;;;;;7.72;5.18;;;;;;;;;;5024111;28;20052;-77
2023/05/09 05:08:21;;;;;;;7.03;5.22;;;;;;;;;;5021016;28;20065;-77
2023/05/09 05:10:48;;;;;;;7.07;5.43;;;;;;;;;;4992922;28;20124;-77
2023/05/09 05:13:14;;;;;;;6.07;4.70;;;;;;;;;;5019635;28;20575;-78
2023/05/09 05:15:40;;;;;;;7.05;5.43;;;;;;;;;;4997534;28;20042;-78
2023/05/09 05:18:05;;;;;;;6.65;4.68;;;;;;;;;;5012592;28;20037;-77
2023/05/09 05:20:31;;;;;;;9.02;5.93;;;;;;;;;;5038086;28;20144;-78
2023/05/09 05:22:57;;;;;;;5.68;4.82;;;;;;;;;;5038567;28;20029;-78
2023/05/09 05:25:23;;;;;;;6.15;4.82;;;;;;;;;;5023791;28;20079;-78
2023/05/09 05:27:48;;;;;;;7.45;5.20;;;;;;;;;;5036180;28;20037;-78
2023/05/09 05:30:16;;;;;;;6.97;4.78;;;;;;;;;;5035753;28;20033;-78
2023/05/09 05:32:42;;;;;;;8.90;4.95;;;;;;;;;;5039085;28;20048;-78
2023/05/09 05:35:10;;;;;;;5.38;4.47;;;;;;;;;;5037439;28;20420;-78
2023/05/09 05:37:36;;;;;;;6.93;4.70;;;;;;;;;;5035093;28;20776;-78
2023/05/09 05:40:02;;;;;;;6.35;4.97;;;;;;;;;;5029960;28;20041;-78
2023/05/09 05:42:27;;;;;;;5.85;4.72;;;;;;;;;;5039808;28;20068;-78
2023/05/09 05:44:53;;;;;;;6.38;5.38;;;;;;;;;;5065519;28;20033;-77
2023/05/09 05:47:18;;;;;;;5.40;4.63;;;;;;;;;;5056295;28;20049;-78
2023/05/09 05:49:43;;;;;;;7.38;4.63;;;;;;;;;;5057051;28;20127;-78
2023/05/09 05:52:09;;;;;;;5.93;5.00;;;;;;;;;;5046844;28;20039;-78
2023/05/09 05:54:34;;;;;;;6.47;5.03;;;;;;;;;;5061976;28;20033;-78
2023/05/09 05:56:59;;;;;;;6.18;4.90;;;;;;;;;;5050111;28;20029;-78
2023/05/09 05:59:25;;;;;;;6.43;5.13;;;;;;;;;;5023101;28;20531;-77
2023/05/09 06:01:50;;;;;;;6.30;5.00;;;;;;;;;;5040128;28;20049;-77
2023/05/09 06:04:15;;;;;;;6.18;5.32;;;;;;;;;;5040964;28;20084;-77
2023/05/09 06:06:41;;;;;;;6.18;5.40;;;;;;;;;;5043429;28;20043;-78
2023/05/09 06:09:06;;;;;;;6.85;4.78;;;;;;;;;;5041332;28;20087;-79
2023/05/09 06:11:31;;;;;;;6.00;5.38;;;;;;;;;;5043106;28;20036;-78
2023/05/09 06:13:57;;;;;;;6.63;4.60;;;;;;;;;;5038375;28;20175;-78
2023/05/09 06:16:22;;;;;;;8.60;5.07;;;;;;;;;;5045794;28;20041;-78
2023/05/09 06:18:48;;;;;;;7.28;5.20;;;;;;;;;;5045053;28;20029;-78
2023/05/09 06:21:13;;;;;;;6.97;4.47;;;;;;;;;;5025746;28;20036;-78
2023/05/09 06:23:38;;;;;;;5.13;4.50;;;;;;;;;;5022962;28;20060;-78
2023/05/09 06:26:04;;;;;;;7.55;4.72;;;;;;;;;;5026764;28;20037;-77
2023/05/09 06:28:29;;;;;;;6.15;3.70;;;;;;;;;;5030096;28;20048;-77
2023/05/09 06:30:54;;;;;;;6.13;4.55;;;;;;;;;;5023553;28;20040;-79
2023/05/09 06:33:20;;;;;;;12.20;5.15;;;;;;;;;;5039043;28;20052;-78
2023/05/09 06:35:45;;;;;;;5.88;4.38;;;;;;;;;;5029390;28;20029;-79
2023/05/09 06:38:11;;;;;;;7.57;4.75;;;;;;;;;;5028507;28;20480;-78
2023/05/09 06:40:36;;;;;;;6.38;5.15;;;;;;;;;;5043662;28;20033;-78
2023/05/09 06:43:01;;;;;;;6.63;4.75;;;;;;;;;;5037267;28;20120;-78
2023/05/09 06:45:27;;;;;;;7.68;5.40;;;;;;;;;;5029429;28;20043;-78
2023/05/09 06:47:52;;;;;;;6.18;4.57;;;;;;;;;;5027982;28;20695;-78
2023/05/09 06:50:17;;;;;;;6.80;5.28;;;;;;;;;;5033714;28;20409;-77
2023/05/09 06:52:43;;;;;;;10.10;5.35;;;;;;;;;;5036323;28;20035;-78
2023/05/09 06:55:09;;;;;;;5.97;5.38;;;;;;;;;;5040585;28;20033;-78
2023/05/09 06:57:35;;;;;;;5.53;3.85;;;;;;;;;;5029788;28;20111;-78
2023/05/09 07:00:00;;;;;;;7.50;5.57;;;;;;;;;;5010867;28;20044;-77
2023/05/09 07:02:25;;;;;;;6.03;4.85;;;;;;;;;;5039562;28;20397;-78
2023/05/09 07:04:51;;;;;;;6.47;4.82;;;;;;;;;;5019960;28;20082;-78
2023/05/09 07:07:16;;;;;;;5.22;4.72;;;;;;;;;;5016757;28;20422;-77
2023/05/09 07:09:41;;;;;;;7.57;5.50;;;;;;;;;;5024707;28;20163;-78
2023/05/09 07:12:07;;;;;;;5.32;4.80;;;;;;;;;;5017997;28;20041;-78
2023/05/09 07:14:32;;;;;;;4.82;4.03;;;;;;;;;;5035780;28;20178;-79
2023/05/09 07:16:58;;;;;;;6.45;5.22;;;;;;;;;;5034294;28;20062;-76
2023/05/09 07:19:23;;;;;;;7.50;5.25;;;;;;;;;;5024564;28;20141;-79
2023/05/09 07:21:48;;;;;;;6.18;5.03;;;;;;;;;;5022664;28;20092;-79
2023/05/09 07:24:14;;;;;;;6.13;5.35;;;;;;;;;;5043746;28;20040;-78
2023/05/09 07:26:39;;;;;;;5.90;5.10;;;;;;;;;;5034788;28;20384;-78
2023/05/09 07:29:04;;;;;;;5.55;4.85;;;;;;;;;;5024971;28;20036;-79
2023/05/09 07:31:30;;;;;;;4.80;4.25;;;;;;;;;;5028184;28;20102;-77
2023/05/09 07:33:55;;;;;;;6.45;5.53;;;;;;;;;;5029798;28;20060;-76
2023/05/09 07:36:21;;;;;;;7.32;5.30;;;;;;;;;;5029666;28;20128;-79
2023/05/09 07:38:47;;;;;;;9.40;5.57;;;;;;;;;;5023282;28;20072;-78
2023/05/09 07:41:13;;;;;;;6.75;5.50;;;;;;;;;;5036357;28;20044;-78
2023/05/09 07:43:38;;;;;;;6.72;5.50;;;;;;;;;;5025586;28;20029;-78
2023/05/09 07:46:04;;;;;;;7.75;5.30;;;;;;;;;;5025476;28;20704;-77
2023/05/09 07:48:29;;;;;;;6.45;5.70;;;;;;;;;;5017265;28;20053;-77
2023/05/09 07:50:54;;;;;;;7.28;5.65;;;;;;;;;;5029674;28;20505;-77
2023/05/09 07:53:20;;;;;;;7.78;5.22;;;;;;;;;;5026002;28;20037;-78
2023/05/09 07:55:47;;;;;;;8.40;5.68;;;;;;;;;;5028605;28;20525;-78
2023/05/09 07:58:12;;;;;;;6.07;4.90;;;;;;;;;;5032862;28;20116;-79
2023/05/09 08:00:38;;;;;;;6.00;5.40;;;;;;;;;;5014215;28;20132;-77
2023/05/09 08:03:03;;;;;;;6.15;5.55;;;;;;;;;;5030823;28;20234;-78
2023/05/09 08:05:28;;;;;;;6.55;5.30;;;;;;;;;;5034929;28;20044;-78
2023/05/09 08:07:55;;;;;;;6.28;5.35;;;;;;;;;;5007817;28;20051;-77
2023/05/09 08:10:21;;;;;;;7.00;5.45;;;;;;;;;;5038215;28;20040;-77
2023/05/09 08:12:47;;;;;;;5.70;5.20;;;;;;;;;;5031716;28;20839;-77
2023/05/09 08:15:13;;;;;;;6.63;5.10;;;;;;;;;;5022419;28;20033;-78
2023/05/09 08:17:38;;;;;;;6.78;5.53;;;;;;;;;;5024128;28;20041;-77
2023/05/09 08:20:04;;;;;;;6.57;4.65;;;;;;;;;;5020103;28;20044;-79
2023/05/09 08:22:30;;;;;;;10.05;5.60;;;;;;;;;;5035635;28;20028;-78
2023/05/09 08:24:55;;;;;;;7.80;5.53;;;;;;;;;;5035097;28;20036;-78
2023/05/09 08:27:21;;;;;;;6.88;5.32;;;;;;;;;;5026726;28;20155;-78
2023/05/09 08:29:46;;;;;;;8.25;5.88;;;;;;;;;;5023336;28;20599;-78
2023/05/09 08:32:11;;;;;;;6.53;5.43;;;;;;;;;;5034045;28;20047;-79
2023/05/09 08:34:37;;;;;;;2.85;2.17;;;;;;;;;;5038796;28;20212;-78
2023/05/09 08:37:03;;;;;;;9.02;5.32;;;;;;;;;;5031473;28;20136;-78
2023/05/09 08:39:29;;;;;;;6.25;5.50;;;;;;;;;;5019909;28;20036;-77
2023/05/09 08:41:59;;;;;;;8.38;5.57;;;;;;;;;;5037460;28;20053;-78
2023/05/09 08:44:25;;;;;;;6.72;4.85;;;;;;;;;;5004104;28;20049;-79
2023/05/09 08:46:53;;;;;;;5.07;4.57;;;;;;;;;;5031686;28;20064;-79
2023/05/09 08:49:22;;;;;;;5.72;4.40;;;;;;;;;;5018531;28;20036;-79
2023/05/09 08:51:48;;;;;;;5.88;5.03;;;;;;;;;;5028114;28;20036;-79
2023/05/09 08:54:14;;;;;;;7.75;4.90;;;;;;;;;;5029067;28;20644;-77
2023/05/09 08:56:40;;;;;;;5.82;5.05;;;;;;;;;;5014550;28;20870;-77
2023/05/09 08:59:06;;;;;;;3.75;3.45;;;;;;;;;;5010938;28;20536;-78
2023/05/09 09:01:34;;;;;;;4.38;3.95;;;;;;;;;;5037416;28;20084;-78
2023/05/09 09:04:00;;;;;;;5.40;4.90;;;;;;;;;;5033915;28;20041;-78
2023/05/09 09:06:27;;;;;;;5.47;4.45;;;;;;;;;;5033567;28;20064;-78
2023/05/09 09:08:54;;;;;;;6.07;5.47;;;;;;;;;;5030290;28;20868;-78
2023/05/09 09:11:21;;;;;;;6.65;3.95;;;;;;;;;;5023673;28;20050;-78
2023/05/09 09:13:50;;;;;;;7.45;4.63;;;;;;;;;;5031864;28;20065;-78
2023/05/09 09:16:19;;;;;;;5.10;4.60;;;;;;;;;;5034110;28;20044;-77
2023/05/09 09:18:45;;;;;;;5.60;4.80;;;;;;;;;;5021751;28;20078;-78
2023/05/09 09:21:17;;;;;;;5.40;4.80;;;;;;;;;;5035331;28;20036;-78
2023/05/09 09:23:43;;;;;;;5.20;4.70;;;;;;;;;;5012007;28;20095;-78
2023/05/09 09:26:08;;;;;;;5.88;4.80;;;;;;;;;;5044062;28;20490;-78
2023/05/09 09:28:34;;;;;;;5.15;3.90;;;;;;;;;;5027631;28;20044;-78
2023/05/09 09:31:00;;;;;;;6.45;4.90;;;;;;;;;;5034351;28;20072;-78
2023/05/09 09:33:27;;;;;;;6.22;5.50;;;;;;;;;;5036593;28;20049;-79
2023/05/09 09:35:55;;;;;;;7.45;5.35;;;;;;;;;;5034546;28;20095;-79
2023/05/09 09:38:22;;;;;;;5.47;4.55;;;;;;;;;;5027896;28;20048;-78
2023/05/09 09:40:54;;;;;;;4.35;3.95;;;;;;;;;;5031037;28;20722;-79
2023/05/09 09:43:25;;;;;;;6.53;5.18;;;;;;;;;;5043975;28;20115;-79
2023/05/09 09:45:52;;;;;;;8.52;6.07;;;;;;;;;;5033807;28;20049;-78
2023/05/09 09:48:23;;;;;;;6.75;5.85;;;;;;;;;;5034406;28;20143;-78
2023/05/09 09:50:48;;;;;;;7.40;6.70;;;;;;;;;;5015942;28;20042;-78
2023/05/09 09:53:13;;;;;;;6.55;5.90;;;;;;;;;;5039720;28;20040;-78
2023/05/09 09:55:48;;;;;;;6.15;5.40;;;;;;;;;;5035344;28;20095;-78
2023/05/09 09:58:19;;;;;;;6.75;6.07;;;;;;;;;;5043323;28;20094;-79
2023/05/09 10:00:45;;;;;;;7.85;6.05;;;;;;;;;;5038649;28;20067;-79
2023/05/09 10:03:15;;;;;;;5.40;4.90;;;;;;;;;;5025172;28;20410;-78
2023/05/09 10:05:40;;;;;;;6.65;5.78;;;;;;;;;;5044701;28;20052;-78
2023/05/09 10:08:09;;;;;;;7.97;6.03;;;;;;;;;;5023218;28;20029;-78
2023/05/09 10:10:36;;;;;;;7.32;5.60;;;;;;;;;;5048588;28;20040;-78
2023/05/09 10:13:06;;;;;;;6.15;5.47;;;;;;;;;;5042524;28;20144;-79
2023/05/09 10:15:33;;;;;;;6.55;5.78;;;;;;;;;;5036782;28;20076;-80
2023/05/09 10:18:02;;;;;;;8.10;5.78;;;;;;;;;;5020843;28;20048;-79
2023/05/09 10:20:28;;;;;;;6.25;5.55;;;;;;;;;;5033266;28;20032;-78
2023/05/09 10:22:56;;;;;;;6.25;5.65;;;;;;;;;;5045564;28;20029;-79
2023/05/09 10:25:31;;;;;;;8.00;6.55;;;;;;;;;;5039071;28;20111;-79
2023/05/09 10:27:59;;;;;;;7.28;6.63;;;;;;;;;;5035793;28;20037;-78
2023/05/09 10:30:34;;;;;;;7.35;6.50;;;;;;;;;;5043417;28;20073;-79
2023/05/09 10:32:59;;;;;;;7.40;6.70;;;;;;;;;;5033935;28;20033;-78
2023/05/09 10:35:29;;;;;;;6.80;6.05;;;;;;;;;;5039924;28;21203;-79
2023/05/09 10:37:56;;;;;;;7.15;6.45;;;;;;;;;;5045310;28;20131;-79
2023/05/09 10:40:22;;;;;;;6.72;6.03;;;;;;;;;;5030928;28;20036;-79
2023/05/09 10:42:47;;;;;;;6.30;5.70;;;;;;;;;;5032230;28;20032;-79
2023/05/09 10:45:13;;;;;;;7.55;6.85;;;;;;;;;;5043550;28;20041;-78
2023/05/09 10:47:40;;;;;;;6.68;6.07;;;;;;;;;;5037627;28;20057;-78
2023/05/09 10:50:11;;;;;;;6.47;5.88;;;;;;;;;;5031216;28;20114;-77
2023/05/09 10:53:07;;;;;;;5.15;4.43;;;;;;;;;;5039607;28;20699;-78
2023/05/09 10:55:38;;;;;;;6.90;6.25;;;;;;;;;;5029979;28;20048;-79
2023/05/09 10:58:32;;;;;;;7.10;6.40;;;;;;;;;;5036937;28;20060;-78
2023/05/09 11:00:59;;;;;;;5.70;5.20;;;;;;;;;;5049595;28;20045;-79
2023/05/09 11:03:26;;;;;;;7.03;6.32;;;;;;;;;;5033392;28;20041;-78
2023/05/09 11:05:53;;;;;;;7.13;6.43;;;;;;;;;;5025885;28;20033;-79
2023/05/09 11:08:29;;;;;;;8.40;7.50;;;;;;;;;;5030262;28;20041;-78
2023/05/09 11:10:59;;;;;;;7.70;6.00;;;;;;;;;;5039987;28;20041;-78
2023/05/09 11:13:31;;;;;;;7.18;6.47;;;;;;;;;;5036585;28;20037;-78
2023/05/09 11:15:59;;;;;;;7.97;6.90;;;;;;;;;;5027733;28;20448;-79
2023/05/09 11:18:25;;;;;;;7.53;6.82;;;;;;;;;;5037855;28;20053;-79
2023/05/09 11:20:50;;;;;;;7.72;6.75;;;;;;;;;;5008366;28;20088;-79
2023/05/09 11:23:20;;;;;;;9.45;8.07;;;;;;;;;;5021080;28;20981;-79
2023/05/09 11:25:46;;;;;;;8.43;7.63;;;;;;;;;;5036964;28;20094;-79
2023/05/09 11:28:27;;;;;;;7.30;6.60;;;;;;;;;;5043289;28;20527;-79
2023/05/09 11:30:52;;;;;;;9.13;7.72;;;;;;;;;;5037321;28;20507;-79
2023/05/09 11:33:29;;;;;;;9.02;6.85;;;;;;;;;;5033083;28;20083;-79
2023/05/09 11:36:24;;;;;;;6.43;5.80;;;;;;;;;;5036099;28;20065;-79
2023/05/09 11:39:06;;;;;;;8.25;7.45;;;;;;;;;;5034787;28;20044;-78
2023/05/09 11:41:47;;;;;;;7.90;7.10;;;;;;;;;;4993385;28;20572;-79
2023/05/09 11:44:17;;;;;;;8.45;7.60;;;;;;;;;;5038730;28;20082;-79
2023/05/09 11:46:43;;;;;;;8.27;7.15;;;;;;;;;;5023542;28;20033;-80
2023/05/09 11:49:09;;;;;;;7.60;6.90;;;;;;;;;;5036568;28;20033;-78
2023/05/09 11:51:37;;;;;;;6.85;6.22;;;;;;;;;;5026378;28;20025;-79
2023/05/09 11:54:05;;;;;;;7.80;7.10;;;;;;;;;;5009504;28;20113;-78
2023/05/09 11:56:31;;;;;;;8.52;7.45;;;;;;;;;;5027139;28;20128;-78
2023/05/09 11:58:57;;;;;;;7.35;6.32;;;;;;;;;;5026203;28;20173;-79
2023/05/09 12:01:23;;;;;;;7.57;6.82;;;;;;;;;;5033254;28;20052;-77
2023/05/09 12:03:49;;;;;;;7.47;6.75;;;;;;;;;;5039391;28;20100;-79
2023/05/09 12:06:17;;;;;;;5.45;4.63;;;;;;;;;;5031971;28;20599;-79
2023/05/09 12:08:43;;;;;;;7.00;6.30;;;;;;;;;;5036350;28;20053;-79
2023/05/09 12:11:09;;;;;;;6.90;5.82;;;;;;;;;;5032828;28;20029;-79
2023/05/09 12:13:35;;;;;;;6.47;5.85;;;;;;;;;;5047506;28;20039;-78
2023/05/09 12:16:01;;;;;;;9.73;7.47;;;;;;;;;;5034493;28;20036;-78
2023/05/09 12:18:26;;;;;;;7.90;7.18;;;;;;;;;;5037472;28;20029;-79
2023/05/09 12:20:52;;;;;;;8.35;7.50;;;;;;;;;;5012653;28;20154;-79
2023/05/09 12:23:18;;;;;;;6.45;5.85;;;;;;;;;;5039750;28;20041;-79
2023/05/09 12:25:53;;;;;;;7.60;6.20;;;;;;;;;;5036383;28;20122;-78
2023/05/09 12:28:21;;;;;;;6.38;5.78;;;;;;;;;;5024773;28;20049;-79
2023/05/09 12:30:47;;;;;;;7.78;6.25;;;;;;;;;;5030949;28;20041;-80
2023/05/09 12:33:13;;;;;;;9.00;5.90;;;;;;;;;;5030065;28;20041;-79
2023/05/09 12:35:39;;;;;;;6.40;5.80;;;;;;;;;;5035858;28;20527;-78
2023/05/09 12:38:04;;;;;;;6.55;5.90;;;;;;;;;;5024900;28;20037;-78
2023/05/09 12:40:29;;;;;;;6.75;6.05;;;;;;;;;;5030520;28;20678;-79
2023/05/09 12:42:59;;;;;;;8.50;5.72;;;;;;;;;;5033852;28;20061;-79
2023/05/09 12:45:25;;;;;;;5.55;5.05;;;;;;;;;;5037627;28;20058;-79
2023/05/09 12:47:52;;;;;;;6.15;5.38;;;;;;;;;;5008800;28;20311;-78
2023/05/09 12:50:18;;;;;;;6.43;5.80;;;;;;;;;;5042234;28;20032;-78
2023/05/09 12:52:49;;;;;;;7.10;6.38;;;;;;;;;;5041034;28;20046;-79
2023/05/09 12:55:15;;;;;;;7.95;6.15;;;;;;;;;;5035150;28;20037;-79
2023/05/09 12:57:41;;;;;;;8.73;6.25;;;;;;;;;;5040895;28;20103;-79
2023/05/09 13:00:08;;;;;;;6.78;6.00;;;;;;;;;;5029770;28;20045;-78
2023/05/09 13:02:39;;;;;;;4.68;4.28;;;;;;;;;;5038098;28;20060;-79
2023/05/09 13:05:14;;;;;;;7.43;5.35;;;;;;;;;;5030033;28;20057;-79
2023/05/09 13:07:44;;;;;;;7.40;5.65;;;;;;;;;;5025480;28;20051;-79
2023/05/09 13:10:14;;;;;;;;;;;;;;;;;;5026319;28;20036;-79
2023/05/09 13:12:43;;;;;;;7.53;5.72;;;;;;;;;;5043061;28;20376;-78
2023/05/09 13:15:09;;;;;;;5.28;4.78;;;;;;;;;;5022536;28;20045;-78
2023/05/09 13:17:35;;;;;;;5.18;4.68;;;;;;;;;;5027047;28;20663;-79
2023/05/09 13:20:00;;;;;;;6.45;5.32;;;;;;;;;;5026417;28;20048;-78
2023/05/09 13:22:26;;;;;;;5.13;4.63;;;;;;;;;;5033962;28;20029;-78
2023/05/09 13:24:51;;;;;;;6.38;5.22;;;;;;;;;;5035843;28;20033;-79
2023/05/09 13:27:16;;;;;;;5.07;4.20;;;;;;;;;;5021751;28;20395;-78
2023/05/09 13:29:42;;;;;;;4.50;4.10;;;;;;;;;;5030567;28;20552;-79
2023/05/09 13:32:07;;;;;;;5.82;5.20;;;;;;;;;;5027286;28;20151;-79
2023/05/09 13:34:33;;;;;;;4.95;4.55;;;;;;;;;;5028502;28;20401;-79
2023/05/09 13:36:58;;;;;;;5.55;5.03;;;;;;;;;;5030994;28;20718;-79
2023/05/09 13:39:23;;;;;;;5.80;5.20;;;;;;;;;;5026611;28;20863;-77
2023/05/09 13:41:51;;;;;;;5.25;4.75;;;;;;;;;;5022370;28;20959;-78
2023/05/09 13:44:17;;;;;;;5.43;4.70;;;;;;;;;;5036507;28;20721;-79
2023/05/09 13:46:44;;;;;;;4.95;4.55;;;;;;;;;;5036965;28;20164;-79
2023/05/09 13:49:10;;;;;;;5.75;5.25;;;;;;;;;;5031533;28;20041;-79
2023/05/09 13:51:36;;;;;;;5.70;4.68;;;;;;;;;;5034759;28;20055;-79
2023/05/09 13:54:03;;;;;;;5.60;4.53;;;;;;;;;;5018033;28;20041;-79
2023/05/09 13:56:28;;;;;;;5.13;4.55;;;;;;;;;;5032084;28;20647;-78
2023/05/09 13:58:54;;;;;;;5.28;4.78;;;;;;;;;;5025769;28;20041;-78
2023/05/09 14:01:21;;;;;;;5.18;4.35;;;;;;;;;;5031974;28;20992;-79
2023/05/09 14:03:47;;;;;;;5.05;4.60;;;;;;;;;;5032397;28;20037;-79
2023/05/09 14:06:13;;;;;;;5.30;4.80;;;;;;;;;;5030835;28;20433;-79
2023/05/09 14:08:38;;;;;;;7.20;4.85;;;;;;;;;;5022696;28;20041;-79
2023/05/09 14:11:04;;;;;;;5.43;4.93;;;;;;;;;;5029642;28;20048;-79
2023/05/09 14:13:30;;;;;;;5.78;5.28;;;;;;;;;;5050421;28;20052;-78
2023/05/09 14:15:56;;;;;;;6.25;4.80;;;;;;;;;;5033720;28;20068;-79
2023/05/09 14:18:21;;;;;;;5.53;4.70;;;;;;;;;;5032686;28;20045;-79
2023/05/09 14:20:47;;;;;;;6.20;4.80;;;;;;;;;;5029182;28;20063;-78
2023/05/09 14:23:12;;;;;;;5.68;4.43;;;;;;;;;;5017087;28;20029;-79
2023/05/09 14:25:37;;;;;;;5.78;4.45;;;;;;;;;;5037225;28;20115;-78
2023/05/09 14:28:03;;;;;;;4.63;4.20;;;;;;;;;;5033107;28;20040;-78
2023/05/09 14:30:28;;;;;;;4.82;3.80;;;;;;;;;;5036744;28;20504;-78
2023/05/09 14:32:54;;;;;;;5.45;4.32;;;;;;;;;;5021580;28;20112;-78
2023/05/09 14:35:19;;;;;;;4.85;4.40;;;;;;;;;;5031102;28;20813;-78
2023/05/09 14:37:45;;;;;;;5.78;4.85;;;;;;;;;;5008649;28;20037;-78
2023/05/09 14:40:10;;;;;;;4.55;4.15;;;;;;;;;;5041080;28;20028;-78
2023/05/09 14:42:36;;;;;;;6.07;4.35;;;;;;;;;;5024766;28;20083;-77
2023/05/09 14:45:02;;;;;;;4.95;4.55;;;;;;;;;;5035471;28;20056;-79
2023/05/09 14:47:28;;;;;;;5.75;4.95;;;;;;;;;;5043396;28;20540;-78
2023/05/09 14:49:54;;;;;;;5.50;4.45;;;;;;;;;;5041061;28;20041;-78
2023/05/09 14:52:19;;;;;;;4.38;3.95;;;;;;;;;;5003768;28;20043;-78
2023/05/09 14:54:44;;;;;;;5.95;4.13;;;;;;;;;;5038301;28;20127;-79
2023/05/09 14:57:10;;;;;;;4.45;4.05;;;;;;;;;;5036267;28;20029;-78
2023/05/09 14:59:36;;;;;;;4.00;3.60;;;;;;;;;;5038213;28;20517;-78
2023/05/09 15:02:01;;;;;;;6.32;4.53;;;;;;;;;;5049833;28;20041;-78
2023/05/09 15:04:29;;;;;;;5.55;4.80;;;;;;;;;;5029255;28;20025;-78
2023/05/09 15:06:55;;;;;;;5.03;3.90;;;;;;;;;;5034823;28;20037;-78
2023/05/09 15:09:21;;;;;;;5.47;3.83;;;;;;;;;;5033587;28;20098;-79
2023/05/09 15:11:47;;;;;;;4.10;3.72;;;;;;;;;;5043444;28;20037;-79
2023/05/09 15:14:12;;;;;;;3.70;3.40;;;;;;;;;;5043093;28;20112;-78
2023/05/09 15:16:38;;;;;;;3.65;3.35;;;;;;;;;;5035395;28;20115;-77
2023/05/09 15:19:03;;;;;;;3.67;3.38;;;;;;;;;;5029702;28;20422;-79
2023/05/09 15:21:29;;;;;;;3.97;3.50;;;;;;;;;;5042741;28;20969;-78
2023/05/09 15:23:54;;;;;;;3.38;3.08;;;;;;;;;;5046522;28;20080;-78
2023/05/09 15:26:20;;;;;;;4.13;3.40;;;;;;;;;;5042801;28;20037;-79
2023/05/09 15:28:45;;;;;;;4.88;2.83;;;;;;;;;;5041707;28;20067;-78
2023/05/09 15:31:11;;;;;;;5.40;3.08;;;;;;;;;;5038193;28;20563;-78
2023/05/09 15:33:37;;;;;;;3.70;3.17;;;;;;;;;;5018215;28;20072;-78
2023/05/09 15:36:02;;;;;;;3.42;3.20;;;;;;;;;;5043970;28;20049;-77
2023/05/09 15:38:28;;;;;;;4.32;3.05;;;;;;;;;;5031612;28;20059;-78
2023/05/09 15:40:53;;;;;;;3.80;3.08;;;;;;;;;;5043127;28;20295;-78
2023/05/09 15:43:19;;;;;;;6.10;2.95;;;;;;;;;;5032252;28;20083;-78
2023/05/09 15:45:45;;;;;;;3.33;2.80;;;;;;;;;;5034623;28;21344;-79
2023/05/09 15:48:14;;;;;;;2.90;2.63;;;;;;;;;;5023602;28;20041;-79
2023/05/09 15:50:41;;;;;;;3.15;2.90;;;;;;;;;;5028205;28;20033;-77
2023/05/09 15:53:07;;;;;;;3.35;2.53;;;;;;;;;;5036218;28;20075;-78
2023/05/09 15:55:33;;;;;;;4.85;2.83;;;;;;;;;;5036150;28;20056;-78
2023/05/09 15:57:58;;;;;;;3.45;2.60;;;;;;;;;;5023507;28;20496;-79
2023/05/09 16:00:23;;;;;;;3.58;2.40;;;;;;;;;;5020687;28;20048;-77
2023/05/09 16:02:49;;;;;;;3.20;2.58;;;;;;;;;;5022114;28;20041;-77
2023/05/09 16:05:15;;;;;;;2.75;2.45;;;;;;;;;;5037825;28;20139;-78
2023/05/09 16:07:45;;;;;;;4.80;3.10;;;;;;;;;;5042234;28;20554;-78
2023/05/09 16:10:11;;;;;;;3.05;2.83;;;;;;;;;;5034843;28;20047;-78
2023/05/09 16:12:36;;;;;;;2.80;2.60;;;;;;;;;;5044410;28;20028;-78
2023/05/09 16:15:03;;;;;;;5.28;2.90;;;;;;;;;;5011909;28;20072;-78
2023/05/09 16:17:30;;;;;;;2.63;2.33;;;;;;;;;;5032047;28;20051;-78
2023/05/09 16:19:55;;;;;;;5.28;2.65;;;;;;;;;;5050759;28;20029;-79
2023/05/09 16:22:21;;;;;;;5.25;3.17;;;;;;;;;;5028902;28;20703;-78
2023/05/09 16:24:47;;;;;;;3.05;2.75;;;;;;;;;;5029802;28;20044;-78
2023/05/09 16:27:13;;;;;;;3.67;3.03;;;;;;;;;;5033719;28;20207;-77
2023/05/09 16:29:39;;;;;;;3.53;3.17;;;;;;;;;;5023411;28;20725;-78
2023/05/09 16:32:06;;;;;;;4.45;2.55;;;;;;;;;;5022482;28;20037;-78
2023/05/09 16:34:33;;;;;;;2.58;2.38;;;;;;;;;;5025485;28;20384;-78
2023/05/09 16:36:58;;;;;;;5.50;2.60;;;;;;;;;;5026166;28;20048;-77
2023/05/09 16:39:26;;;;;;;3.20;2.40;;;;;;;;;;5027504;28;20037;-77
2023/05/09 16:41:53;;;;;;;3.67;2.50;;;;;;;;;;4998466;28;20144;-79
2023/05/09 16:44:18;;;;;;;2.80;2.35;;;;;;;;;;5032489;28;20041;-79
2023/05/09 16:46:43;;;;;;;2.70;2.50;;;;;;;;;;5026677;28;20048;-78
2023/05/09 16:49:09;;;;;;;2.95;2.45;;;;;;;;;;5029496;28;20045;-78
2023/05/09 16:51:35;;;;;;;2.85;2.60;;;;;;;;;;5026760;28;20056;-78
2023/05/09 16:54:00;;;;;;;4.32;2.28;;;;;;;;;;5018807;28;20182;-77
2023/05/09 16:56:26;;;;;;;3.60;2.22;;;;;;;;;;5010860;28;20516;-78
2023/05/09 16:58:51;;;;;;;2.45;2.25;;;;;;;;;;5032826;28;20117;-78
2023/05/09 17:01:17;;;;;;;2.95;2.65;;;;;;;;;;5031360;28;20045;-78
2023/05/09 17:03:42;;;;;;;4.55;2.40;;;;;;;;;;5028514;28;20037;-78
2023/05/09 17:06:07;;;;;;;2.92;2.50;;;;;;;;;;5023425;28;20420;-78
2023/05/09 17:08:33;;;;;;;3.80;2.38;;;;;;;;;;5034403;28;20439;-77
2023/05/09 17:10:58;;;;;;;2.40;2.20;;;;;;;;;;5015078;28;20693;-78
2023/05/09 17:13:24;;;;;;;2.30;2.10;;;;;;;;;;5024844;28;20048;-78
2023/05/09 17:15:51;;;;;;;3.03;2.35;;;;;;;;;;5044228;28;20037;-77
2023/05/09 17:18:17;;;;;;;3.58;1.98;;;;;;;;;;5020528;28;20068;-78
2023/05/09 17:20:43;;;;;;;4.32;2.40;;;;;;;;;;5027699;28;20029;-78
2023/05/09 17:23:09;;;;;;;3.58;2.45;;;;;;;;;;5030122;28;20038;-77
2023/05/09 17:25:34;;;;;;;3.20;2.10;;;;;;;;;;5016570;28;20037;-77
2023/05/09 17:27:59;;;;;;;4.13;2.00;;;;;;;;;;5026028;28;20521;-78
2023/05/09 17:30:25;;;;;;;2.30;2.10;;;;;;;;;;5023871;28;20059;-77
2023/05/09 17:32:50;;;;;;;3.22;2.20;;;;;;;;;;5021290;28;20746;-77
2023/05/09 17:35:18;;;;;;;6.03;2.20;;;;;;;;;;5025787;28;20115;-78
2023/05/09 17:37:44;;;;;;;3.08;2.17;;;;;;;;;;5002327;28;20038;-77
2023/05/09 17:40:10;;;;;;;2.58;1.92;;;;;;;;;;5021231;28;20103;-78
2023/05/09 17:42:35;;;;;;;3.45;2.30;;;;;;;;;;5022840;28;20106;-78
2023/05/09 17:45:00;;;;;;;4.20;2.08;;;;;;;;;;5022212;28;20138;-77
2023/05/09 17:47:27;;;;;;;4.35;2.20;;;;;;;;;;5026895;28;20075;-77
2023/05/09 17:49:53;;;;;;;3.03;2.00;;;;;;;;;;5023234;28;20120;-76
2023/05/09 17:52:18;;;;;;;3.28;2.10;;;;;;;;;;5020294;28;20147;-77
2023/05/09 17:54:43;;;;;;;3.72;2.00;;;;;;;;;;5026475;28;20544;-78
2023/05/09 17:57:09;;;;;;;3.08;1.92;;;;;;;;;;5029382;28;20067;-77
2023/05/09 17:59:34;;;;;;;3.83;2.45;;;;;;;;;;5028227;28;20041;-77
2023/05/09 18:02:00;;;;;;;2.20;2.00;;;;;;;;;;5032860;28;20033;-77
2023/05/09 18:04:26;;;;;;;2.88;1.77;;;;;;;;;;5034589;28;20041;-78
2023/05/09 18:06:52;;;;;;;2.70;1.90;;;;;;;;;;5016878;28;20178;-78
2023/05/09 18:09:17;;;;;;;3.97;1.92;;;;;;;;;;5042004;28;20047;-78
2023/05/09 18:11:43;;;;;;;2.05;1.85;;;;;;;;;;5033773;28;20468;-77
2023/05/09 18:14:08;;;;;;;3.10;1.88;;;;;;;;;;4996320;28;20064;-78
2023/05/09 18:16:34;;;;;;;2.85;2.15;;;;;;;;;;5025210;28;20041;-78
2023/05/09 18:19:00;;;;;;;2.08;1.83;;;;;;;;;;5020762;28;20044;-77
2023/05/09 18:21:25;;;;;;;2.78;2.10;;;;;;;;;;5018133;28;20036;-77
2023/05/09 18:23:51;;;;;;;3.88;1.98;;;;;;;;;;5041399;28;20037;-77
2023/05/09 18:26:16;;;;;;;3.25;2.03;;;;;;;;;;5041668;28;20040;-77
2023/05/09 18:28:42;;;;;;;2.78;1.85;;;;;;;;;;5024374;28;20075;-77
2023/05/09 18:31:08;;;;;;;3.50;1.95;;;;;;;;;;5046689;28;20427;-76
2023/05/09 18:33:37;;;;;;;5.63;2.25;;;;;;;;;;5033212;28;20121;-76
2023/05/09 18:36:10;;;;;;;6.25;2.22;;;;;;;;;;5038250;28;20032;-78
2023/05/09 18:38:39;;;;;;;4.72;2.10;;;;;;;;;;5040764;28;20032;-78
2023/05/09 18:41:10;;;;;;;2.35;2.00;;;;;;;;;;5039004;28;20042;-78
2023/05/09 18:43:37;;;;;;;2.78;2.10;;;;;;;;;;5029622;28;20063;-78
2023/05/09 18:46:04;;;;;;;4.45;1.92;;;;;;;;;;5043999;28;20056;-78
2023/05/09 18:48:29;;;;;;;4.38;2.00;;;;;;;;;;5036662;28;20115;-77
2023/05/09 18:50:55;;;;;;;2.45;1.77;;;;;;;;;;5029367;28;20135;-76
2023/05/09 18:53:24;;;;;;;3.08;1.98;;;;;;;;;;5047346;28;20554;-76
2023/05/09 18:55:50;;;;;;;3.50;2.15;;;;;;;;;;5030572;28;20167;-77
2023/05/09 18:58:15;;;;;;;2.90;1.73;;;;;;;;;;5037548;28;20739;-77
2023/05/09 19:00:41;;;;;;;1.77;1.67;;;;;;;;;;5038789;28;20464;-77
2023/05/09 19:03:07;;;;;;;3.45;2.10;;;;;;;;;;5029055;28;20061;-77
2023/05/09 19:05:32;;;;;;;2.40;1.90;;;;;;;;;;5037282;28;20042;-76
2023/05/09 19:07:57;;;;;;;2.35;2.15;;;;;;;;;;5019139;28;20084;-78
2023/05/09 19:10:23;;;;;;;4.72;2.15;;;;;;;;;;5048065;28;20087;-78
2023/05/09 19:12:49;;;;;;;2.97;2.00;;;;;;;;;;5037651;28;20866;-79
2023/05/09 19:15:14;;;;;;;2.83;2.05;;;;;;;;;;5040744;28;20505;-77
2023/05/09 19:17:40;;;;;;;2.58;1.98;;;;;;;;;;5035031;28;20064;-77
2023/05/09 19:20:07;;;;;;;8.23;4.10;;;;;;;;;;5034274;28;20112;-76
2023/05/09 19:22:33;;;;;;;6.35;3.35;;;;;;;;;;5030814;28;20094;-77
2023/05/09 19:24:59;;;;;;;3.10;2.53;;;;;;;;;;5041500;28;20041;-78